Airfield :







YOU CAN JOIN US ON...

 
LOGIN :

Register | Disclaimer

   EN    FR    IT 

 









Legend :    VFR   Marginal VFR   IFR   Intensive IFR   Very Intensive IFR
Visi :
Ceiling :
>= 8 km
>= 3000ft
5 to 8 km
1000 to 3000 ft
1500m to 5 km
500 to 1000 ft
800 to 1500m
200 to 500 ft
< 800m
< 200 ft
Symbols :   Thunderstorms  Fog  Heavy snow  Heavy precipitations  Wind > 20 kt






- Airport Elevation : 270 ft
- IATA code : YMX


CYMX - Montreal International Mirabel

CURRENT METAR :
  • 260100Z VRB02KT 25SM OVC028 20/17 A3006 RMK SC8 SLP181 DENSITY ALT 800FT

EXPIRED METARs :
  • 260000Z 00000KT 35SM OVC028 20/17 A3005 RMK SC8 SLP179 DENSITY ALT 800FT
  • 252300Z VRB02KT 45SM OVC029 21/16 A3005 RMK SC8 SLP179 DENSITY ALT 900FT

TAF AMD TAF CYMX
Valid from the 26 at 00:00 until the 27 at 00:00 UTC


252344Z 2600/2624 20005KT P6SM BKN030
FM260300 VRB03KT P6SM FEW250
PROB30 2608/2612 3/4SM BR
FM261600 24008KT P6SM SCT050
TEMPO 2619/2623 P6SM VCTS BKN050CB RMK NXT FCST BY 260600Z
CZUL FIR / North America



MET'MAP, your aeronautical weather chart ! - Copyright ORBIFLY December 2007 - Disclaimer

ORBIFLY MET'MAP TEAM :

Programming & Development : Alexandra Zaïnal
Concept & original design : Baudouin d'Aumeries
Assistance for programming : Marc-Olivier Méhu
Technical & hardware support : Manuel Goepfert

Contact : metmap@orbifly.com




SOURCES & CREDITS :

   NOAA